Time;durP1;ratioP1;P1;durP2;ratioP2;P2;SDS_P1;SDS_P2;PMS_P1;PMS_P2;Temp;Humidity;BMP_temperature;BMP_pressure;BME280_temperature;BME280_humidity;BME280_pressure;Samples;Min_cycle;Max_cycle;Signal;HPM_P1;HPM_P2
2022/06/16 00:01:47;;;;;;;1999.90;999.90;;;;;;;20.19;100.00;94857.28;5098474;28;20213;-63
2022/06/16 00:04:13;;;;;;;1999.90;999.90;;;;;;;20.16;100.00;94843.59;5115034;28;20208;-63
2022/06/16 00:06:38;;;;;;;1999.90;999.90;;;;;;;20.10;100.00;94832.41;5114631;28;20190;-63
2022/06/16 00:09:04;;;;;;;1999.90;999.90;;;;;;;20.09;100.00;94816.97;5114905;28;20209;-64
2022/06/16 00:11:29;;;;;;;1999.90;999.90;;;;;;;20.05;100.00;94810.09;5097593;28;20215;-63
2022/06/16 00:13:55;;;;;;;1999.90;999.90;;;;;;;20.07;100.00;94807.63;5114589;28;20183;-63
2022/06/16 00:16:22;;;;;;;1999.90;999.90;;;;;;;20.00;100.00;94814.31;5114927;28;20205;-72
2022/06/16 00:18:48;;;;;;;1999.90;999.90;;;;;;;19.95;100.00;94803.88;5114488;28;20176;-61
2022/06/16 00:21:13;;;;;;;1999.90;999.90;;;;;;;19.87;100.00;94791.66;5097491;28;20409;-61
2022/06/16 00:23:39;;;;;;;1999.90;999.90;;;;;;;19.83;100.00;94782.78;5097209;28;20252;-60
2022/06/16 00:26:11;;;;;;;1999.90;999.90;;;;;;;19.80;100.00;94789.25;5097286;28;20274;-60
2022/06/16 00:28:37;;;;;;;1999.90;999.90;;;;;;;19.73;100.00;94781.31;5097973;28;20189;-60
2022/06/16 00:31:04;;;;;;;1999.90;999.90;;;;;;;19.64;100.00;94772.34;5114480;28;20254;-61
2022/06/16 00:33:30;;;;;;;1999.90;999.90;;;;;;;19.63;100.00;94765.28;5097092;28;20219;-57
2022/06/16 00:35:55;;;;;;;1999.90;999.90;;;;;;;19.57;100.00;94773.50;5114459;28;20180;-56
2022/06/16 00:38:21;;;;;;;1999.90;999.90;;;;;;;19.52;100.00;94769.38;5097159;28;20310;-58
2022/06/16 00:40:46;;;;;;;1999.90;999.90;;;;;;;19.58;100.00;94765.91;5114284;28;20280;-57
2022/06/16 00:43:12;;;;;;;1999.90;999.90;;;;;;;19.57;100.00;94770.72;5097005;28;20179;-57
2022/06/16 00:45:45;;;;;;;1999.90;999.90;;;;;;;19.57;100.00;94764.41;5114064;28;20180;-57
2022/06/16 00:48:23;;;;;;;1999.90;999.90;;;;;;;19.47;100.00;94755.41;5114653;28;20183;-57
2022/06/16 00:51:29;;;;;;;1999.90;999.90;;;;;;;19.42;100.00;94750.56;5114710;28;20186;-57
2022/06/16 00:54:00;;;;;;;1999.90;999.90;;;;;;;19.43;100.00;94754.84;5033178;28;20225;-66
2022/06/16 00:56:26;;;;;;;1999.90;999.90;;;;;;;19.37;100.00;94756.72;5104301;28;20194;-66
2022/06/16 00:58:58;;;;;;;1999.90;999.90;;;;;;;19.35;100.00;94739.84;5113887;28;20282;-65
2022/06/16 01:01:25;;;;;;;1999.90;999.90;;;;;;;19.33;100.00;94764.47;5097226;28;20196;-65
2022/06/16 01:06:37;;;;;;;1999.90;999.90;;;;;;;19.37;100.00;94776.13;5115252;28;20712;-65
2022/06/16 01:09:05;;;;;;;1999.90;999.90;;;;;;;19.28;100.00;94770.66;5113614;28;20236;-66
2022/06/16 01:15:00;;;;;;;1999.90;999.90;;;;;;;19.38;100.00;94769.38;5115062;28;20316;-66
2022/06/16 01:17:44;;;;;;;1999.90;999.90;;;;;;;19.42;100.00;94769.94;5096420;28;20183;-66
2022/06/16 01:20:30;;;;;;;1999.90;999.90;;;;;;;19.44;100.00;94775.75;5113555;28;20219;-66
2022/06/16 01:23:23;;;;;;;1999.90;999.90;;;;;;;19.31;100.00;94773.25;5113578;28;20282;-66
2022/06/16 01:25:52;;;;;;;1999.90;999.90;;;;;;;19.23;100.00;94771.31;5113594;28;20199;-67
2022/06/16 01:28:30;;;;;;;1999.90;999.90;;;;;;;19.15;100.00;94786.72;5113267;28;20188;-67
2022/06/16 01:31:02;;;;;;;1999.90;999.90;;;;;;;19.13;100.00;94797.53;5096362;28;20187;-57
2022/06/16 01:33:49;;;;;;;1999.90;999.90;;;;;;;19.10;100.00;94796.47;5113404;28;20562;-61
2022/06/16 01:36:34;;;;;;;1999.90;999.90;;;;;;;19.00;100.00;94794.22;5113165;28;20191;-61
2022/06/16 01:39:16;;;;;;;1999.90;999.90;;;;;;;18.91;100.00;94813.69;5113661;28;20212;-60
2022/06/16 01:41:59;;;;;;;1999.90;999.90;;;;;;;18.94;100.00;94818.28;5096302;28;20192;-62
2022/06/16 01:44:31;;;;;;;1999.90;999.90;;;;;;;18.96;100.00;94815.78;5113568;28;20223;-61
2022/06/16 01:47:00;;;;;;;1999.90;999.90;;;;;;;18.97;100.00;94820.06;5113341;28;20248;-59
2022/06/16 01:49:33;;;;;;;1999.90;999.90;;;;;;;18.94;100.00;94821.03;5096228;28;20227;-61
2022/06/16 01:52:08;;;;;;;1999.90;999.90;;;;;;;18.98;100.00;94818.84;5113612;28;20187;-61
2022/06/16 01:54:38;;;;;;;1999.90;999.90;;;;;;;18.95;100.00;94822.56;5096524;28;20195;-61
2022/06/16 01:57:20;;;;;;;1999.90;999.90;;;;;;;18.95;100.00;94825.34;5096396;28;20307;-61
2022/06/16 02:00:01;;;;;;;1999.90;999.90;;;;;;;18.86;100.00;94823.38;5113509;28;20207;-61
2022/06/16 02:02:30;;;;;;;1999.90;999.90;;;;;;;18.88;100.00;94833.97;5096352;28;20176;-61
2022/06/16 02:05:19;;;;;;;1999.90;999.90;;;;;;;18.87;100.00;94835.22;5095955;28;20211;-61
2022/06/16 02:08:02;;;;;;;1999.90;999.90;;;;;;;18.90;100.00;94843.34;5083268;28;20225;-62
2022/06/16 02:10:33;;;;;;;1999.90;999.90;;;;;;;18.91;100.00;94835.81;5113124;28;20269;-62
2022/06/16 02:13:00;;;;;;;1999.90;999.90;;;;;;;18.93;100.00;94838.84;5096092;28;20187;-62
2022/06/16 02:15:36;;;;;;;1999.90;999.90;;;;;;;18.94;100.00;94829.34;5112829;28;20188;-63
2022/06/16 02:18:05;;;;;;;1999.90;999.90;;;;;;;18.93;100.00;94825.03;5096327;28;20187;-63
2022/06/16 02:20:50;;;;;;;1999.90;999.90;;;;;;;18.87;100.00;94819.38;5095800;28;20270;-63
2022/06/16 02:23:15;;;;;;;1999.90;999.90;;;;;;;18.83;100.00;94824.31;5115032;28;20187;-59
2022/06/16 02:25:43;;;;;;;1999.90;999.90;;;;;;;18.84;100.00;94816.78;5099366;28;20217;-62
2022/06/16 02:28:08;;;;;;;1999.90;999.90;;;;;;;18.86;100.00;94822.59;5100050;28;20206;-67
2022/06/16 02:30:44;;;;;;;1999.90;999.90;;;;;;;18.83;100.00;94829.09;5116245;28;20184;-67
2022/06/16 02:33:49;;;;;;;1999.90;999.90;;;;;;;18.78;100.00;94833.28;5099204;28;20184;-67
2022/06/16 02:36:32;;;;;;;1999.90;999.90;;;;;;;18.73;100.00;94827.63;5116519;28;20256;-66
2022/06/16 02:39:33;;;;;;;1999.90;999.90;;;;;;;18.69;100.00;94816.72;5116007;28;20211;-66
2022/06/16 02:42:08;;;;;;;1999.90;999.90;;;;;;;18.64;100.00;94819.34;5085037;28;20230;-66
2022/06/16 02:44:55;;;;;;;1999.90;999.90;;;;;;;18.63;100.00;94809.53;5116480;28;20242;-60
2022/06/16 02:50:52;;;;;;;1999.90;999.90;;;;;;;18.58;100.00;94801.88;5082680;28;20199;-60
2022/06/16 02:56:17;;;;;;;1999.90;999.90;;;;;;;18.53;100.00;94808.03;5117101;28;20195;-60
2022/06/16 02:58:44;;;;;;;1999.90;999.90;;;;;;;18.56;100.00;94815.41;5098918;28;20187;-60
2022/06/16 03:01:10;;;;;;;1999.90;999.90;;;;;;;18.55;100.00;94819.41;5115950;28;20278;-64
2022/06/16 03:03:37;;;;;;;1999.90;999.90;;;;;;;18.47;100.00;94812.69;5115615;28;20195;-62
2022/06/16 03:06:04;;;;;;;1999.90;999.90;;;;;;;18.45;100.00;94798.56;5115722;28;20187;-62
2022/06/16 03:08:31;;;;;;;1999.90;999.90;;;;;;;18.39;100.00;94800.44;5098670;28;20215;-62
2022/06/16 03:10:58;;;;;;;1999.90;999.90;;;;;;;18.27;100.00;94793.84;5115737;28;20194;-62
2022/06/16 03:13:30;;;;;;;1999.90;999.90;;;;;;;18.23;100.00;94798.00;5098446;28;20195;-64
2022/06/16 03:15:58;;;;;;;1999.90;999.90;;;;;;;18.23;100.00;94792.47;5098520;28;20276;-62
2022/06/16 03:18:25;;;;;;;1999.90;999.90;;;;;;;18.25;100.00;94795.56;5098515;28;20203;-64
2022/06/16 03:20:50;;;;;;;1999.90;999.90;;;;;;;18.26;100.00;94799.84;5098718;28;20188;-62
2022/06/16 03:23:17;;;;;;;1999.90;999.90;;;;;;;18.32;100.00;94801.50;5098378;28;20178;-66
2022/06/16 03:25:43;;;;;;;1999.90;999.90;;;;;;;18.31;100.00;94815.78;5115404;28;20200;-67
2022/06/16 03:28:13;;;;;;;1999.90;999.90;;;;;;;18.32;100.00;94822.88;5115291;28;20192;-68
2022/06/16 03:30:39;;;;;;;1999.90;999.90;;;;;;;18.38;100.00;94818.25;5098943;28;20234;-67
2022/06/16 03:33:08;;;;;;;1999.90;999.90;;;;;;;18.33;100.00;94830.69;5097417;28;20194;-67
2022/06/16 03:35:34;;;;;;;1999.90;999.90;;;;;;;18.45;100.00;94831.75;5099067;28;20179;-66
2022/06/16 03:38:01;;;;;;;1999.90;999.90;;;;;;;18.59;100.00;94847.66;5115293;28;20216;-67
2022/06/16 03:40:26;;;;;;;1999.90;999.90;;;;;;;18.73;100.00;94844.22;5098176;28;20188;-64
2022/06/16 03:42:52;;;;;;;1999.90;999.90;;;;;;;18.86;100.00;94870.44;5097969;28;20195;-63
2022/06/16 03:45:17;;;;;;;1999.90;999.90;;;;;;;18.97;100.00;94883.72;5098240;28;20229;-63
2022/06/16 03:47:43;;;;;;;1999.90;999.90;;;;;;;19.06;100.00;94898.28;5098388;28;20184;-63
2022/06/16 03:50:12;;;;;;;1999.90;999.90;;;;;;;19.10;100.00;94909.19;5115524;28;20217;-64
2022/06/16 03:52:38;;;;;;;1999.90;999.90;;;;;;;19.18;100.00;94927.00;5098219;28;20194;-63
2022/06/16 03:55:04;;;;;;;1999.90;999.90;;;;;;;19.31;100.00;94922.78;5115132;28;20187;-63
2022/06/16 03:57:31;;;;;;;1999.90;999.90;;;;;;;19.48;100.00;94934.22;5114850;28;20195;-68
2022/06/16 03:59:57;;;;;;;1999.90;999.90;;;;;;;19.65;100.00;94953.97;5098354;28;20215;-67
2022/06/16 04:02:22;;;;;;;1999.90;999.90;;;;;;;19.83;100.00;94964.94;5114632;28;20263;-66
2022/06/16 04:04:47;;;;;;;1999.90;999.90;;;;;;;20.04;100.00;94981.25;5114896;28;20203;-66
2022/06/16 04:07:13;;;;;;;1999.90;999.90;;;;;;;20.31;100.00;95000.47;5114715;28;20188;-67
2022/06/16 04:09:41;;;;;;;1999.90;999.90;;;;;;;20.62;100.00;95025.78;5114650;28;20215;-66
2022/06/16 04:12:06;;;;;;;1999.90;999.90;;;;;;;20.91;100.00;95039.66;5115449;28;20254;-66
2022/06/16 04:14:32;;;;;;;1999.90;999.90;;;;;;;21.22;100.00;95050.31;5114751;28;20220;-68
2022/06/16 04:16:58;;;;;;;1999.90;999.90;;;;;;;21.46;100.00;95071.16;5114654;28;20183;-67
2022/06/16 04:19:24;;;;;;;1999.90;999.90;;;;;;;21.79;100.00;95082.84;5114587;28;20256;-68
2022/06/16 04:21:52;;;;;;;1999.90;999.90;;;;;;;22.25;100.00;95094.84;5114334;28;20188;-68
2022/06/16 04:24:18;;;;;;;1999.90;999.90;;;;;;;22.74;100.00;95123.81;5097298;28;20250;-69
2022/06/16 04:26:45;;;;;;;1999.90;999.90;;;;;;;23.13;100.00;95136.16;5114074;28;20223;-68
2022/06/16 04:29:11;;;;;;;1999.90;999.90;;;;;;;23.46;100.00;95142.09;5114282;28;20188;-68
2022/06/16 04:31:38;;;;;;;1999.90;999.90;;;;;;;23.25;100.00;95151.78;5097311;28;20188;-62
2022/06/16 04:34:04;;;;;;;1999.90;999.90;;;;;;;22.91;100.00;95147.81;5114447;28;20251;-67
2022/06/16 04:36:29;;;;;;;1999.90;999.90;;;;;;;22.62;100.00;95141.66;5097124;28;20183;-68
2022/06/16 04:38:55;;;;;;;1999.90;999.90;;;;;;;22.31;100.00;95129.09;5113953;28;20214;-67
2022/06/16 04:41:22;;;;;;;1999.90;999.90;;;;;;;22.08;100.00;95121.66;5097025;28;20328;-69
2022/06/16 04:43:48;;;;;;;1999.90;999.90;;;;;;;21.82;100.00;95108.91;5096962;28;20253;-70
2022/06/16 04:46:15;;;;;;;1999.90;999.90;;;;;;;21.58;100.00;95092.34;5096016;28;20188;-70
2022/06/16 04:48:41;;;;;;;1999.90;999.90;;;;;;;21.72;100.00;95091.59;5096934;28;20191;-70
2022/06/16 04:51:07;;;;;;;1999.90;999.90;;;;;;;22.08;100.00;95104.97;5096873;28;20205;-58
2022/06/16 04:53:32;;;;;;;1999.90;999.90;;;;;;;22.67;100.00;95116.66;5114212;28;20176;-55
2022/06/16 04:56:00;;;;;;;1999.90;999.90;;;;;;;23.36;100.00;95140.72;5096923;28;20191;-57
2022/06/16 04:58:26;;;;;;;1999.90;999.90;;;;;;;24.08;100.00;95159.63;5096883;28;20188;-57
2022/06/16 05:00:53;;;;;;;1999.90;999.90;;;;;;;24.72;97.66;95193.31;5113704;28;20184;-56
2022/06/16 05:03:20;;;;;;;1999.90;999.90;;;;;;;24.71;96.34;95194.59;5096686;28;20189;-55
2022/06/16 05:05:46;;;;;;;1999.90;999.90;;;;;;;24.83;94.90;95198.97;5096768;28;20252;-57
2022/06/16 05:08:13;;;;;;;1999.90;999.90;;;;;;;25.48;91.32;95219.31;5113448;28;20194;-68
2022/06/16 05:10:39;;;;;;;1999.90;999.90;;;;;;;25.79;87.95;95227.53;5096495;28;20195;-63
2022/06/16 05:13:05;;;;;;;1999.90;999.90;;;;;;;25.76;87.42;95236.94;5096668;28;20203;-63
2022/06/16 05:15:31;;;;;;;1999.90;999.90;;;;;;;25.77;87.99;95237.69;5113915;28;20180;-63
2022/06/16 05:17:56;;;;;;;1999.90;999.90;;;;;;;26.25;85.43;95246.69;5113674;28;20184;-61
2022/06/16 05:20:22;;;;;;;1999.90;999.90;;;;;;;26.84;82.71;95258.41;5113451;28;20181;-63
2022/06/16 05:22:48;;;;;;;1999.90;999.90;;;;;;;27.26;78.67;95269.25;5113357;28;20210;-63
2022/06/16 05:25:13;;;;;;;1999.90;999.90;;;;;;;27.31;78.78;95272.03;5113019;28;20199;-62
2022/06/16 05:27:39;;;;;;;1999.90;999.90;;;;;;;27.92;75.67;95283.78;5113380;28;20180;-66
2022/06/16 05:30:05;;;;;;;1999.90;999.90;;;;;;;28.26;73.71;95285.09;5113643;28;20192;-58
2022/06/16 05:32:30;;;;;;;1999.90;999.90;;;;;;;28.78;69.74;95292.63;5112988;28;20180;-59
2022/06/16 05:34:55;;;;;;;1999.90;999.90;;;;;;;29.23;68.29;95308.56;5113228;28;20191;-59
2022/06/16 05:37:21;;;;;;;1999.90;999.90;;;;;;;29.52;66.87;95309.78;5112892;28;20198;-59
2022/06/16 05:39:49;;;;;;;1999.90;999.90;;;;;;;30.23;63.34;95322.25;5096404;28;20195;-58
2022/06/16 05:42:15;;;;;;;1999.90;999.90;;;;;;;30.29;62.60;95320.09;5096303;28;20176;-58
2022/06/16 05:44:40;;;;;;;1999.90;999.90;;;;;;;30.12;63.14;95322.38;5095982;28;20208;-58
2022/06/16 05:47:06;;;;;;;1999.90;999.90;;;;;;;30.54;62.42;95329.97;5112873;28;20200;-63
2022/06/16 05:49:33;;;;;;;1999.90;999.90;;;;;;;31.48;59.00;95337.66;5113073;28;20180;-58
2022/06/16 05:51:59;;;;;;;1999.90;999.90;;;;;;;32.39;55.57;95340.44;5112968;28;20184;-58
2022/06/16 05:54:24;;;;;;;1999.90;999.90;;;;;;;33.18;51.01;95335.94;5095782;28;20188;-58
2022/06/16 05:56:49;;;;;;;1999.90;999.90;;;;;;;33.14;48.39;95346.88;5117208;28;20202;-58
2022/06/16 05:59:16;;;;;;;1999.90;999.90;;;;;;;32.53;50.74;95344.75;5119696;28;20227;-58
2022/06/16 06:01:41;;;;;;;1999.90;999.90;;;;;;;32.17;51.20;95346.53;5120396;28;20190;-58
2022/06/16 06:04:06;;;;;;;1999.90;999.90;;;;;;;31.65;53.95;95349.41;5119320;28;20207;-62
2022/06/16 06:06:32;;;;;;;1999.90;999.90;;;;;;;31.02;56.02;95349.47;5119977;28;20176;-64
2022/06/16 06:17:18;;;;;;;1999.90;999.90;;;;;;;29.86;62.45;95350.38;5121032;28;20315;-66
2022/06/16 06:19:43;;;;;;;1999.90;999.90;;;;;;;29.42;64.41;95345.22;5102418;28;20179;-65
2022/06/16 06:22:13;;;;;;;1999.90;999.90;;;;;;;29.38;65.27;95345.50;5119552;28;20191;-65
2022/06/16 06:24:41;;;;;;;1999.90;999.90;;;;;;;29.68;63.70;95339.84;5102585;28;20203;-61
2022/06/16 06:27:27;;;;;;;1999.90;999.90;;;;;;;30.90;58.45;95345.31;5119269;28;20179;-61
2022/06/16 06:29:52;;;;;;;1999.90;999.90;;;;;;;30.86;58.21;95350.53;5102242;28;20176;-60
2022/06/16 06:32:20;;;;;;;1999.90;999.90;;;;;;;31.13;57.68;95352.88;5119282;28;20184;-60
2022/06/16 06:34:46;;;;;;;1999.90;999.90;;;;;;;30.82;58.62;95352.91;5119066;28;20289;-60
2022/06/16 06:37:14;;;;;;;1999.90;999.90;;;;;;;30.45;59.58;95350.13;5119236;28;20255;-61
2022/06/16 06:39:40;;;;;;;1999.90;999.90;;;;;;;29.57;63.57;95354.03;5119499;27;20195;-60
2022/06/16 06:42:06;;;;;;;1999.90;999.90;;;;;;;28.89;68.18;95340.34;5119220;28;20183;-60
2022/06/16 06:44:31;;;;;;;1999.90;999.90;;;;;;;28.96;69.83;95334.13;5118896;28;20208;-62
2022/06/16 06:46:57;;;;;;;1999.90;999.90;;;;;;;30.03;67.87;95345.28;5119370;28;20282;-61
2022/06/16 06:49:22;;;;;;;1999.90;999.90;;;;;;;30.81;64.61;95331.63;5119740;28;20184;-63
2022/06/16 06:51:48;;;;;;;1999.90;999.90;;;;;;;30.81;63.30;95337.28;5119276;28;20182;-62
2022/06/16 06:54:14;;;;;;;1999.90;999.90;;;;;;;30.79;61.86;95345.50;5119730;28;20219;-60
2022/06/16 06:56:39;;;;;;;1999.90;999.90;;;;;;;31.14;61.40;95345.19;5119675;28;20211;-62
2022/06/16 06:59:10;;;;;;;1999.90;999.90;;;;;;;30.82;62.93;95355.72;5102025;28;20190;-57
2022/06/16 07:01:35;;;;;;;1999.90;999.90;;;;;;;30.32;65.09;95353.63;5102148;28;20184;-64
2022/06/16 07:04:02;;;;;;;1999.90;999.90;;;;;;;31.04;64.11;95358.94;5101957;28;20202;-70
2022/06/16 07:06:28;;;;;;;1999.90;999.90;;;;;;;31.17;64.80;95361.03;5119849;28;20262;-62
2022/06/16 07:08:53;;;;;;;1999.90;999.90;;;;;;;30.76;64.50;95364.28;5098999;28;20266;-61
2022/06/16 07:11:19;;;;;;;1999.90;999.90;;;;;;;30.23;68.70;95370.16;5116061;28;20253;-68
2022/06/16 07:13:44;;;;;;;1999.90;999.90;;;;;;;29.49;71.31;95372.81;5116138;28;20439;-68
2022/06/16 07:16:10;;;;;;;1999.90;999.90;;;;;;;28.78;74.62;95371.38;5116021;28;20184;-66
2022/06/16 07:18:37;;;;;;;1999.90;999.90;;;;;;;28.38;77.04;95365.22;5098506;28;20184;-62
2022/06/16 07:21:04;;;;;;;1999.90;999.90;;;;;;;27.87;81.18;95363.19;5098631;28;20183;-60
2022/06/16 07:23:29;;;;;;;1999.90;999.90;;;;;;;27.70;82.75;95358.91;5116381;28;20263;-60
2022/06/16 07:25:55;;;;;;;1999.90;999.90;;;;;;;27.61;82.71;95356.41;5115397;28;20247;-59
2022/06/16 07:28:21;;;;;;;1999.90;999.90;;;;;;;27.60;83.23;95361.22;5098723;28;20236;-59
2022/06/16 07:30:47;;;;;;;1999.90;999.90;;;;;;;27.89;82.57;95357.84;5115547;28;20647;-61
2022/06/16 07:33:12;;;;;;;1999.90;999.90;;;;;;;28.34;80.43;95366.78;5098328;28;20172;-61
2022/06/16 07:35:41;;;;;;;1999.90;999.90;;;;;;;30.33;72.79;95371.28;5115833;28;20183;-58
2022/06/16 07:38:07;;;;;;;1999.90;999.90;;;;;;;32.47;62.39;95383.72;5115680;28;20204;-58
2022/06/16 07:40:32;;;;;;;1999.90;999.90;;;;;;;32.34;58.58;95374.50;5098772;28;20278;-60
2022/06/16 07:42:58;;;;;;;1999.90;999.90;;;;;;;31.68;61.97;95362.41;5098612;28;20234;-61
2022/06/16 07:45:29;;;;;;;1999.90;999.90;;;;;;;31.03;63.38;95351.75;5098158;28;20324;-61
2022/06/16 07:47:57;;;;;;;1999.90;999.90;;;;;;;30.85;64.56;95365.94;5115084;28;20229;-61
2022/06/16 07:50:23;;;;;;;1999.90;999.90;;;;;;;30.90;65.00;95350.97;5098445;28;20184;-60
2022/06/16 07:52:49;;;;;;;1999.90;999.90;;;;;;;30.97;65.58;95356.00;5115161;28;20182;-60
2022/06/16 07:55:14;;;;;;;1999.90;999.90;;;;;;;30.72;65.25;95341.25;5098214;28;20275;-61
2022/06/16 07:57:46;;;;;;;1999.90;999.90;;;;;;;31.43;64.75;95341.34;5098392;28;20180;-59
2022/06/16 08:00:14;;;;;;;1999.90;999.90;;;;;;;33.49;56.59;95349.06;5098194;28;20183;-60
2022/06/16 08:02:40;;;;;;;1999.90;999.90;;;;;;;34.95;50.97;95347.91;5097564;28;20176;-60
2022/06/16 08:05:06;;;;;;;1999.90;999.90;;;;;;;35.99;46.05;95347.16;5098028;28;20215;-57
2022/06/16 08:07:32;;;;;;;1999.90;999.90;;;;;;;37.45;42.67;95353.84;5097869;28;20184;-58
2022/06/16 08:09:58;;;;;;;1999.90;999.90;;;;;;;37.60;39.81;95350.84;5115611;28;20187;-58
2022/06/16 08:12:24;;;;;;;1999.90;999.90;;;;;;;38.97;38.23;95346.66;5114780;28;20184;-67
2022/06/16 08:14:50;;;;;;;1999.90;999.90;;;;;;;38.58;37.65;95339.19;5114470;28;20188;-61
2022/06/16 08:17:17;;;;;;;1999.90;999.90;;;;;;;39.42;34.69;95350.22;5114444;28;20194;-62
2022/06/16 08:19:43;;;;;;;1999.90;999.90;;;;;;;38.96;34.82;95362.31;5113545;28;20187;-61
2022/06/16 08:22:09;;;;;;;1999.90;999.90;;;;;;;38.92;35.38;95364.06;5114366;28;20184;-61
2022/06/16 08:24:34;;;;;;;1999.90;999.90;;;;;;;38.82;35.75;95364.00;5097255;28;20199;-62
2022/06/16 08:27:01;;;;;;;1999.90;999.90;;;;;;;38.04;37.34;95376.69;5114266;28;20180;-61
2022/06/16 08:29:27;;;;;;;1999.90;999.90;;;;;;;36.69;38.19;95384.09;5097442;28;20259;-62
2022/06/16 08:31:53;;;;;;;1999.90;999.90;;;;;;;35.85;40.77;95371.47;5097434;28;20230;-67
2022/06/16 08:34:18;;;;;;;1999.90;999.90;;;;;;;34.65;43.15;95381.88;5097072;28;20267;-58
2022/06/16 08:36:44;;;;;;;1999.90;999.90;;;;;;;35.21;43.45;95387.34;5097017;28;20176;-58
2022/06/16 08:39:10;;;;;;;1999.90;999.90;;;;;;;34.62;45.12;95394.38;5114222;28;20206;-58
2022/06/16 08:42:03;;;;;;;1999.90;999.90;;;;;;;33.97;46.50;95397.81;5114080;28;20179;-58
2022/06/16 08:44:30;;;;;;;1999.90;999.90;;;;;;;33.72;47.71;95409.50;5114368;28;20202;-58
2022/06/16 08:47:23;;;;;;;1999.90;999.90;;;;;;;33.13;47.09;95419.00;5113978;28;20184;-58
2022/06/16 08:49:51;;;;;;;1999.90;999.90;;;;;;;33.19;46.99;95413.97;5097041;28;20234;-64
2022/06/16 08:52:49;;;;;;;1999.90;999.90;;;;;;;32.88;47.90;95409.28;5113898;28;20187;-63
2022/06/16 08:55:30;;;;;;;1999.90;999.90;;;;;;;34.65;44.62;95405.34;5059836;28;20206;-63
2022/06/16 08:58:05;;;;;;;1999.90;999.90;;;;;;;36.50;41.46;95403.75;5114102;28;20179;-63
2022/06/16 09:00:38;;;;;;;1999.90;999.90;;;;;;;37.66;37.46;95399.91;5097137;28;20193;-63
2022/06/16 09:03:23;;;;;;;1999.90;999.90;;;;;;;38.52;37.98;95395.81;5114261;28;20211;-63
2022/06/16 09:06:06;;;;;;;1999.90;999.90;;;;;;;36.83;38.97;95393.94;5114211;28;20290;-63
2022/06/16 09:09:04;;;;;;;1999.90;999.90;;;;;;;36.75;40.36;95404.63;5114403;28;20202;-58
2022/06/16 09:11:54;;;;;;;1999.90;999.90;;;;;;;35.90;41.38;95406.72;5063199;28;20192;-58
2022/06/16 09:17:27;;;;;;;1999.90;999.90;;;;;;;34.47;46.21;95408.47;5115114;28;20308;-58
2022/06/16 09:20:03;;;;;;;1999.90;999.90;;;;;;;33.69;47.81;95409.88;5113875;28;20191;-58
2022/06/16 09:22:43;;;;;;;1999.90;999.90;;;;;;;35.15;44.85;95412.34;5097087;28;20191;-58
2022/06/16 09:25:11;;;;;;;1999.90;999.90;;;;;;;36.35;42.61;95409.50;5113921;28;20306;-58
2022/06/16 09:27:45;;;;;;;1999.90;999.90;;;;;;;37.17;41.02;95422.66;5113530;28;20212;-63
2022/06/16 09:30:17;;;;;;;1999.90;999.90;;;;;;;36.83;41.55;95422.44;5096776;28;20180;-65
2022/06/16 09:32:58;;;;;;;1999.90;999.90;;;;;;;36.85;41.60;95436.84;5112885;28;20211;-65
2022/06/16 09:35:41;;;;;;;1999.90;999.90;;;;;;;36.12;43.09;95423.00;5113360;28;20222;-64
2022/06/16 09:38:41;;;;;;;1999.90;999.90;;;;;;;35.61;44.08;95420.34;5096435;28;20200;-65
2022/06/16 09:42:32;;;;;;;1999.90;999.90;;;;;;;35.02;46.65;95421.00;5113379;28;20180;-65
2022/06/16 09:43:54;;;;;;;1999.90;999.90;;;;;;;34.44;48.25;95418.88;5114286;28;20250;-64
2022/06/16 09:46:23;;;;;;;1999.90;999.90;;;;;;;33.89;50.92;95422.53;5113256;28;20215;-60
2022/06/16 09:49:05;;;;;;;1999.90;999.90;;;;;;;33.14;54.51;95428.25;5095846;28;20191;-63
2022/06/16 09:51:39;;;;;;;1999.90;999.90;;;;;;;33.74;54.63;95426.72;5113160;28;20180;-65
2022/06/16 09:54:05;;;;;;;1999.90;999.90;;;;;;;34.51;53.66;95423.06;5113126;28;20183;-65
2022/06/16 09:56:46;;;;;;;1999.90;999.90;;;;;;;34.50;53.31;95427.22;5112933;28;20186;-65
2022/06/16 09:59:16;;;;;;;1999.90;999.90;;;;;;;34.47;54.18;95434.03;5096182;28;20183;-66
2022/06/16 10:01:52;;;;;;;1999.90;999.90;;;;;;;35.24;51.65;95443.03;5095938;28;20199;-66
2022/06/16 10:04:18;;;;;;;1999.90;999.90;;;;;;;36.55;45.25;95454.03;5095827;28;20278;-64
2022/06/16 10:06:51;;;;;;;1999.90;999.90;;;;;;;36.53;44.67;95445.31;5112738;28;20241;-64
2022/06/16 10:09:19;;;;;;;1999.90;999.90;;;;;;;36.36;45.52;95448.00;5113781;28;20198;-64
2022/06/16 10:12:22;;;;;;;1999.90;999.90;;;;;;;37.25;42.12;95439.72;5112933;28;20184;-64
2022/06/16 10:14:59;;;;;;;1999.90;999.90;;;;;;;36.45;43.99;95445.31;5113131;28;20187;-63
2022/06/16 10:17:25;;;;;;;1999.90;999.90;;;;;;;35.52;44.71;95452.19;5095664;28;20183;-65
2022/06/16 10:19:52;;;;;;;1999.90;999.90;;;;;;;34.96;48.28;95446.75;5096231;28;20202;-64
2022/06/16 10:22:23;;;;;;;1999.90;999.90;;;;;;;35.00;48.12;95443.53;5112887;28;20180;-60
2022/06/16 10:25:03;;;;;;;1999.90;999.90;;;;;;;34.34;48.39;95445.50;5113209;28;20218;-66
2022/06/16 10:27:35;;;;;;;1999.90;999.90;;;;;;;34.30;48.09;95453.59;5113071;28;20188;-66
2022/06/16 10:30:05;;;;;;;1999.90;999.90;;;;;;;33.92;49.91;95452.56;5112727;28;20228;-66
2022/06/16 10:32:39;;;;;;;1999.90;999.90;;;;;;;33.31;53.21;95454.84;5095790;28;20179;-65
2022/06/16 10:35:07;;;;;;;1999.90;999.90;;;;;;;32.96;53.11;95455.41;5095917;28;20187;-65
2022/06/16 10:37:33;;;;;;;1999.90;999.90;;;;;;;32.26;56.42;95461.28;5095452;28;20197;-67
2022/06/16 10:40:05;;;;;;;1999.90;999.90;;;;;;;31.42;74.82;95468.97;5095513;28;20204;-59
2022/06/16 10:42:40;;;;;;;1999.90;999.90;;;;;;;29.79;100.00;95384.78;5112681;28;20279;-65
2022/06/16 10:45:11;;;;;;;1999.90;999.90;;;;;;;27.66;100.00;95240.50;5116509;28;20207;-61
2022/06/16 10:47:53;;;;;;;1999.90;999.90;;;;;;;26.02;100.00;95164.72;5116519;28;20175;-61
2022/06/16 10:50:25;;;;;;;1999.90;999.90;;;;;;;24.76;100.00;95011.47;5098996;28;20195;-62
2022/06/16 10:52:59;;;;;;;1999.90;999.90;;;;;;;24.38;100.00;94937.47;5099397;28;20179;-63
2022/06/16 10:55:29;;;;;;;1999.90;999.90;;;;;;;24.64;100.00;94924.09;5117040;28;20194;-63
2022/06/16 10:58:06;;;;;;;1999.90;999.90;;;;;;;25.81;100.00;94928.31;5116132;28;20191;-61
2022/06/16 11:00:35;;;;;;;1999.90;999.90;;;;;;;27.18;100.00;94966.06;5098858;28;20188;-63
2022/06/16 11:03:10;;;;;;;1999.90;999.90;;;;;;;28.50;100.00;95059.53;5099384;28;20180;-64
2022/06/16 11:05:51;;;;;;;1999.90;999.90;;;;;;;29.10;100.00;95131.16;5115714;28;20203;-64
2022/06/16 11:08:16;;;;;;;1999.90;999.90;;;;;;;29.53;100.00;95179.00;5116211;28;20187;-65
2022/06/16 11:10:52;;;;;;;1999.90;999.90;;;;;;;30.60;100.00;95203.72;5115992;28;20201;-64
2022/06/16 11:13:26;;;;;;;1999.90;999.90;;;;;;;31.35;100.00;95235.97;5115651;28;20180;-65
2022/06/16 11:15:52;;;;;;;1999.90;999.90;;;;;;;31.90;100.00;95299.81;5098962;28;20188;-60
2022/06/16 11:18:22;;;;;;;1999.90;999.90;;;;;;;32.31;100.00;95331.09;5115985;28;20195;-69
2022/06/16 11:20:50;;;;;;;1999.90;999.90;;;;;;;32.61;100.00;95327.84;5098540;28;20179;-60
2022/06/16 11:23:30;;;;;;;1999.90;999.90;;;;;;;33.14;100.00;95358.19;5115210;28;20176;-61
2022/06/16 11:26:14;;;;;;;1999.90;999.90;;;;;;;32.92;91.04;95391.97;5098266;28;20299;-61
2022/06/16 11:28:47;;;;;;;1999.90;999.90;;;;;;;33.18;87.63;95389.75;5115193;28;20179;-60